sensor_id;sensor_type;location;lat;lon;timestamp;P1;durP1;ratioP1;P2;durP2;ratioP2
7029;SDS011;3556;53.500;10.176;2023-05-14T00:01:51;5.83;;;5.23;;
7029;SDS011;3556;53.500;10.176;2023-05-14T00:04:17;9.63;;;5.83;;
7029;SDS011;3556;53.500;10.176;2023-05-14T00:06:46;5.57;;;5.13;;
7029;SDS011;3556;53.500;10.176;2023-05-14T00:09:11;6.07;;;5.57;;
7029;SDS011;3556;53.500;10.176;2023-05-14T00:11:37;6.30;;;5.67;;
7029;SDS011;3556;53.500;10.176;2023-05-14T00:14:03;6.00;;;5.40;;
7029;SDS011;3556;53.500;10.176;2023-05-14T00:16:29;7.83;;;5.23;;
7029;SDS011;3556;53.500;10.176;2023-05-14T00:18:54;9.47;;;6.37;;
7029;SDS011;3556;53.500;10.176;2023-05-14T00:21:20;5.63;;;5.23;;
7029;SDS011;3556;53.500;10.176;2023-05-14T00:23:45;6.17;;;5.50;;
7029;SDS011;3556;53.500;10.176;2023-05-14T00:26:11;7.97;;;6.00;;
7029;SDS011;3556;53.500;10.176;2023-05-14T00:28:37;6.10;;;5.57;;
7029;SDS011;3556;53.500;10.176;2023-05-14T00:31:02;8.70;;;5.43;;
7029;SDS011;3556;53.500;10.176;2023-05-14T00:33:28;6.03;;;5.50;;
7029;SDS011;3556;53.500;10.176;2023-05-14T00:35:54;6.17;;;5.57;;
7029;SDS011;3556;53.500;10.176;2023-05-14T00:38:19;5.67;;;5.17;;
7029;SDS011;3556;53.500;10.176;2023-05-14T00:40:45;6.43;;;5.77;;
7029;SDS011;3556;53.500;10.176;2023-05-14T00:43:16;6.37;;;5.37;;
7029;SDS011;3556;53.500;10.176;2023-05-14T00:45:43;5.60;;;5.00;;
7029;SDS011;3556;53.500;10.176;2023-05-14T00:48:09;7.80;;;6.50;;
7029;SDS011;3556;53.500;10.176;2023-05-14T00:50:35;6.67;;;6.07;;
7029;SDS011;3556;53.500;10.176;2023-05-14T00:53:00;6.67;;;6.00;;
7029;SDS011;3556;53.500;10.176;2023-05-14T00:55:27;6.23;;;5.60;;
7029;SDS011;3556;53.500;10.176;2023-05-14T00:57:54;6.20;;;5.60;;
7029;SDS011;3556;53.500;10.176;2023-05-14T01:00:21;7.70;;;6.27;;
7029;SDS011;3556;53.500;10.176;2023-05-14T01:02:46;6.10;;;5.50;;
7029;SDS011;3556;53.500;10.176;2023-05-14T01:05:12;9.33;;;5.77;;
7029;SDS011;3556;53.500;10.176;2023-05-14T01:07:47;8.13;;;5.47;;
7029;SDS011;3556;53.500;10.176;2023-05-14T01:10:29;6.47;;;5.87;;
7029;SDS011;3556;53.500;10.176;2023-05-14T01:13:08;7.13;;;5.53;;
7029;SDS011;3556;53.500;10.176;2023-05-14T01:15:44;5.83;;;5.33;;
7029;SDS011;3556;53.500;10.176;2023-05-14T01:18:12;5.90;;;5.40;;
7029;SDS011;3556;53.500;10.176;2023-05-14T01:20:41;7.83;;;5.27;;
7029;SDS011;3556;53.500;10.176;2023-05-14T01:23:06;7.93;;;5.63;;
7029;SDS011;3556;53.500;10.176;2023-05-14T01:25:32;6.30;;;5.70;;
7029;SDS011;3556;53.500;10.176;2023-05-14T01:28:05;6.13;;;5.53;;
7029;SDS011;3556;53.500;10.176;2023-05-14T01:33:18;6.40;;;5.80;;
7029;SDS011;3556;53.500;10.176;2023-05-14T01:35:45;8.40;;;6.27;;
7029;SDS011;3556;53.500;10.176;2023-05-14T01:38:12;6.47;;;5.97;;
7029;SDS011;3556;53.500;10.176;2023-05-14T01:40:41;6.87;;;5.60;;
7029;SDS011;3556;53.500;10.176;2023-05-14T01:43:09;6.70;;;5.77;;
7029;SDS011;3556;53.500;10.176;2023-05-14T01:45:35;7.20;;;6.43;;
7029;SDS011;3556;53.500;10.176;2023-05-14T01:48:02;6.07;;;5.57;;
7029;SDS011;3556;53.500;10.176;2023-05-14T01:50:28;7.00;;;6.40;;
7029;SDS011;3556;53.500;10.176;2023-05-14T01:52:54;7.30;;;6.30;;
7029;SDS011;3556;53.500;10.176;2023-05-14T01:55:20;6.90;;;6.20;;
7029;SDS011;3556;53.500;10.176;2023-05-14T01:57:48;6.97;;;6.33;;
7029;SDS011;3556;53.500;10.176;2023-05-14T02:00:17;8.30;;;6.53;;
7029;SDS011;3556;53.500;10.176;2023-05-14T02:02:43;9.03;;;6.17;;
7029;SDS011;3556;53.500;10.176;2023-05-14T02:05:12;7.77;;;6.50;;
7029;SDS011;3556;53.500;10.176;2023-05-14T02:07:38;7.37;;;6.67;;
7029;SDS011;3556;53.500;10.176;2023-05-14T02:10:04;8.40;;;5.80;;
7029;SDS011;3556;53.500;10.176;2023-05-14T02:12:30;11.83;;;6.57;;
7029;SDS011;3556;53.500;10.176;2023-05-14T02:14:55;14.70;;;6.57;;
7029;SDS011;3556;53.500;10.176;2023-05-14T02:17:21;6.80;;;6.20;;
7029;SDS011;3556;53.500;10.176;2023-05-14T02:19:48;8.17;;;6.60;;
7029;SDS011;3556;53.500;10.176;2023-05-14T02:22:13;6.90;;;6.27;;
7029;SDS011;3556;53.500;10.176;2023-05-14T02:24:39;11.80;;;7.07;;
7029;SDS011;3556;53.500;10.176;2023-05-14T02:27:05;8.40;;;7.40;;
7029;SDS011;3556;53.500;10.176;2023-05-14T02:29:30;8.53;;;6.17;;
7029;SDS011;3556;53.500;10.176;2023-05-14T02:31:56;9.83;;;6.33;;
7029;SDS011;3556;53.500;10.176;2023-05-14T02:34:22;7.67;;;6.87;;
7029;SDS011;3556;53.500;10.176;2023-05-14T02:36:47;7.10;;;6.33;;
7029;SDS011;3556;53.500;10.176;2023-05-14T02:39:13;7.33;;;6.37;;
7029;SDS011;3556;53.500;10.176;2023-05-14T02:41:38;7.57;;;6.87;;
7029;SDS011;3556;53.500;10.176;2023-05-14T02:44:04;7.37;;;6.60;;
7029;SDS011;3556;53.500;10.176;2023-05-14T02:46:30;6.30;;;5.80;;
7029;SDS011;3556;53.500;10.176;2023-05-14T02:48:56;9.63;;;6.80;;
7029;SDS011;3556;53.500;10.176;2023-05-14T02:51:22;6.33;;;5.70;;
7029;SDS011;3556;53.500;10.176;2023-05-14T02:53:48;7.40;;;6.70;;
7029;SDS011;3556;53.500;10.176;2023-05-14T02:56:13;7.83;;;7.07;;
7029;SDS011;3556;53.500;10.176;2023-05-14T02:58:39;7.50;;;6.70;;
7029;SDS011;3556;53.500;10.176;2023-05-14T03:01:05;7.43;;;6.80;;
7029;SDS011;3556;53.500;10.176;2023-05-14T03:03:30;8.53;;;6.47;;
7029;SDS011;3556;53.500;10.176;2023-05-14T03:05:56;7.73;;;6.60;;
7029;SDS011;3556;53.500;10.176;2023-05-14T03:08:22;7.57;;;6.50;;
7029;SDS011;3556;53.500;10.176;2023-05-14T03:10:48;7.10;;;6.23;;
7029;SDS011;3556;53.500;10.176;2023-05-14T03:13:13;9.30;;;7.00;;
7029;SDS011;3556;53.500;10.176;2023-05-14T03:15:42;8.93;;;6.30;;
7029;SDS011;3556;53.500;10.176;2023-05-14T03:18:08;9.33;;;7.10;;
7029;SDS011;3556;53.500;10.176;2023-05-14T03:20:33;9.43;;;6.57;;
7029;SDS011;3556;53.500;10.176;2023-05-14T03:22:59;8.77;;;7.43;;
7029;SDS011;3556;53.500;10.176;2023-05-14T03:25:25;8.67;;;7.07;;
7029;SDS011;3556;53.500;10.176;2023-05-14T03:27:51;10.47;;;7.67;;
7029;SDS011;3556;53.500;10.176;2023-05-14T03:30:16;9.90;;;8.20;;
7029;SDS011;3556;53.500;10.176;2023-05-14T03:32:42;9.30;;;7.30;;
7029;SDS011;3556;53.500;10.176;2023-05-14T03:35:08;12.80;;;7.70;;
7029;SDS011;3556;53.500;10.176;2023-05-14T03:37:34;8.97;;;7.83;;
7029;SDS011;3556;53.500;10.176;2023-05-14T03:39:59;8.97;;;8.07;;
7029;SDS011;3556;53.500;10.176;2023-05-14T03:42:25;8.80;;;7.33;;
7029;SDS011;3556;53.500;10.176;2023-05-14T03:44:51;10.80;;;7.80;;
7029;SDS011;3556;53.500;10.176;2023-05-14T03:47:17;12.00;;;7.97;;
7029;SDS011;3556;53.500;10.176;2023-05-14T03:49:43;9.43;;;8.03;;
7029;SDS011;3556;53.500;10.176;2023-05-14T03:52:08;7.63;;;6.93;;
7029;SDS011;3556;53.500;10.176;2023-05-14T03:54:34;11.70;;;7.80;;
7029;SDS011;3556;53.500;10.176;2023-05-14T03:56:59;10.83;;;6.90;;
7029;SDS011;3556;53.500;10.176;2023-05-14T03:59:26;11.40;;;7.33;;
7029;SDS011;3556;53.500;10.176;2023-05-14T04:01:51;7.40;;;6.70;;
7029;SDS011;3556;53.500;10.176;2023-05-14T04:04:17;8.40;;;7.07;;
7029;SDS011;3556;53.500;10.176;2023-05-14T04:06:43;8.33;;;7.30;;
7029;SDS011;3556;53.500;10.176;2023-05-14T04:09:09;8.50;;;7.60;;
7029;SDS011;3556;53.500;10.176;2023-05-14T04:11:35;11.27;;;7.17;;
7029;SDS011;3556;53.500;10.176;2023-05-14T04:14:00;7.73;;;7.00;;
7029;SDS011;3556;53.500;10.176;2023-05-14T04:16:26;8.27;;;7.47;;
7029;SDS011;3556;53.500;10.176;2023-05-14T04:18:52;8.57;;;7.57;;
7029;SDS011;3556;53.500;10.176;2023-05-14T04:21:17;10.37;;;8.10;;
7029;SDS011;3556;53.500;10.176;2023-05-14T04:23:43;12.33;;;7.63;;
7029;SDS011;3556;53.500;10.176;2023-05-14T04:26:09;8.10;;;7.20;;
7029;SDS011;3556;53.500;10.176;2023-05-14T04:28:34;9.83;;;7.40;;
7029;SDS011;3556;53.500;10.176;2023-05-14T04:31:00;8.27;;;7.43;;
7029;SDS011;3556;53.500;10.176;2023-05-14T04:33:26;8.37;;;7.13;;
7029;SDS011;3556;53.500;10.176;2023-05-14T04:35:51;12.60;;;7.70;;
7029;SDS011;3556;53.500;10.176;2023-05-14T04:38:17;9.40;;;8.40;;
7029;SDS011;3556;53.500;10.176;2023-05-14T04:40:43;12.20;;;8.30;;
7029;SDS011;3556;53.500;10.176;2023-05-14T04:43:08;8.37;;;7.43;;
7029;SDS011;3556;53.500;10.176;2023-05-14T04:45:34;11.93;;;8.60;;
7029;SDS011;3556;53.500;10.176;2023-05-14T04:48:01;8.53;;;7.73;;
7029;SDS011;3556;53.500;10.176;2023-05-14T04:50:31;8.53;;;7.70;;
7029;SDS011;3556;53.500;10.176;2023-05-14T04:52:57;11.07;;;8.10;;
7029;SDS011;3556;53.500;10.176;2023-05-14T04:55:23;7.97;;;7.17;;
7029;SDS011;3556;53.500;10.176;2023-05-14T04:57:48;11.83;;;7.70;;
7029;SDS011;3556;53.500;10.176;2023-05-14T05:00:15;8.10;;;7.30;;
7029;SDS011;3556;53.500;10.176;2023-05-14T05:02:41;8.53;;;7.70;;
7029;SDS011;3556;53.500;10.176;2023-05-14T05:05:07;12.33;;;8.40;;
7029;SDS011;3556;53.500;10.176;2023-05-14T05:07:33;9.17;;;7.50;;
7029;SDS011;3556;53.500;10.176;2023-05-14T05:09:59;12.13;;;6.87;;
7029;SDS011;3556;53.500;10.176;2023-05-14T05:12:24;9.97;;;8.00;;
7029;SDS011;3556;53.500;10.176;2023-05-14T05:14:53;8.13;;;7.30;;
7029;SDS011;3556;53.500;10.176;2023-05-14T05:17:22;10.77;;;7.80;;
7029;SDS011;3556;53.500;10.176;2023-05-14T05:19:48;13.17;;;8.00;;
7029;SDS011;3556;53.500;10.176;2023-05-14T05:22:14;8.43;;;7.50;;
7029;SDS011;3556;53.500;10.176;2023-05-14T05:24:40;8.57;;;7.77;;
7029;SDS011;3556;53.500;10.176;2023-05-14T05:27:06;8.90;;;7.73;;
7029;SDS011;3556;53.500;10.176;2023-05-14T05:29:32;8.63;;;7.83;;
7029;SDS011;3556;53.500;10.176;2023-05-14T05:31:58;8.80;;;7.90;;
7029;SDS011;3556;53.500;10.176;2023-05-14T05:34:24;13.70;;;7.30;;
7029;SDS011;3556;53.500;10.176;2023-05-14T05:36:49;11.67;;;7.97;;
7029;SDS011;3556;53.500;10.176;2023-05-14T05:39:15;8.90;;;7.97;;
7029;SDS011;3556;53.500;10.176;2023-05-14T05:41:41;8.47;;;7.67;;
7029;SDS011;3556;53.500;10.176;2023-05-14T05:44:07;10.57;;;7.97;;
7029;SDS011;3556;53.500;10.176;2023-05-14T05:46:33;9.30;;;8.37;;
7029;SDS011;3556;53.500;10.176;2023-05-14T05:48:58;10.60;;;7.13;;
7029;SDS011;3556;53.500;10.176;2023-05-14T05:51:24;9.17;;;7.23;;
7029;SDS011;3556;53.500;10.176;2023-05-14T05:53:50;8.13;;;7.43;;
7029;SDS011;3556;53.500;10.176;2023-05-14T05:56:15;10.30;;;7.80;;
7029;SDS011;3556;53.500;10.176;2023-05-14T05:58:41;10.87;;;7.37;;
7029;SDS011;3556;53.500;10.176;2023-05-14T06:01:07;10.50;;;8.07;;
7029;SDS011;3556;53.500;10.176;2023-05-14T06:03:32;10.10;;;7.70;;
7029;SDS011;3556;53.500;10.176;2023-05-14T06:05:58;7.90;;;7.10;;
7029;SDS011;3556;53.500;10.176;2023-05-14T06:08:23;8.40;;;6.53;;
7029;SDS011;3556;53.500;10.176;2023-05-14T06:10:49;16.20;;;7.80;;
7029;SDS011;3556;53.500;10.176;2023-05-14T06:13:15;9.20;;;7.63;;
7029;SDS011;3556;53.500;10.176;2023-05-14T06:15:40;8.20;;;7.20;;
7029;SDS011;3556;53.500;10.176;2023-05-14T06:18:06;14.30;;;7.87;;
7029;SDS011;3556;53.500;10.176;2023-05-14T06:20:31;10.10;;;7.53;;
7029;SDS011;3556;53.500;10.176;2023-05-14T06:22:58;9.00;;;7.20;;
7029;SDS011;3556;53.500;10.176;2023-05-14T06:25:23;7.63;;;6.80;;
7029;SDS011;3556;53.500;10.176;2023-05-14T06:27:49;7.70;;;7.00;;
7029;SDS011;3556;53.500;10.176;2023-05-14T06:30:14;11.23;;;6.90;;
7029;SDS011;3556;53.500;10.176;2023-05-14T06:32:40;6.77;;;6.17;;
7029;SDS011;3556;53.500;10.176;2023-05-14T06:35:06;7.43;;;5.73;;
7029;SDS011;3556;53.500;10.176;2023-05-14T06:37:32;7.33;;;6.30;;
7029;SDS011;3556;53.500;10.176;2023-05-14T06:39:57;7.60;;;6.87;;
7029;SDS011;3556;53.500;10.176;2023-05-14T06:42:23;10.30;;;7.33;;
7029;SDS011;3556;53.500;10.176;2023-05-14T06:44:50;10.07;;;7.20;;
7029;SDS011;3556;53.500;10.176;2023-05-14T06:47:15;7.83;;;6.83;;
7029;SDS011;3556;53.500;10.176;2023-05-14T06:49:41;7.53;;;6.70;;
7029;SDS011;3556;53.500;10.176;2023-05-14T06:52:07;6.10;;;5.50;;
7029;SDS011;3556;53.500;10.176;2023-05-14T06:54:32;11.10;;;6.00;;
7029;SDS011;3556;53.500;10.176;2023-05-14T06:56:58;6.60;;;5.87;;
7029;SDS011;3556;53.500;10.176;2023-05-14T06:59:23;7.90;;;6.50;;
7029;SDS011;3556;53.500;10.176;2023-05-14T07:01:49;7.57;;;6.87;;
7029;SDS011;3556;53.500;10.176;2023-05-14T07:04:15;8.03;;;6.50;;
7029;SDS011;3556;53.500;10.176;2023-05-14T07:06:40;6.73;;;6.13;;
7029;SDS011;3556;53.500;10.176;2023-05-14T07:09:06;6.20;;;5.70;;
7029;SDS011;3556;53.500;10.176;2023-05-14T07:11:32;6.20;;;5.70;;
7029;SDS011;3556;53.500;10.176;2023-05-14T07:13:58;10.30;;;6.63;;
7029;SDS011;3556;53.500;10.176;2023-05-14T07:16:23;8.77;;;6.20;;
7029;SDS011;3556;53.500;10.176;2023-05-14T07:18:50;13.43;;;6.10;;
7029;SDS011;3556;53.500;10.176;2023-05-14T07:21:15;6.07;;;5.57;;
7029;SDS011;3556;53.500;10.176;2023-05-14T07:23:41;6.00;;;5.50;;
7029;SDS011;3556;53.500;10.176;2023-05-14T07:26:07;7.17;;;5.77;;
7029;SDS011;3556;53.500;10.176;2023-05-14T07:28:33;6.07;;;5.53;;
7029;SDS011;3556;53.500;10.176;2023-05-14T07:30:58;6.80;;;5.57;;
7029;SDS011;3556;53.500;10.176;2023-05-14T07:33:24;6.50;;;6.00;;
7029;SDS011;3556;53.500;10.176;2023-05-14T07:35:50;6.97;;;5.63;;
7029;SDS011;3556;53.500;10.176;2023-05-14T07:38:17;5.60;;;5.20;;
7029;SDS011;3556;53.500;10.176;2023-05-14T07:40:43;6.47;;;5.20;;
7029;SDS011;3556;53.500;10.176;2023-05-14T07:43:09;6.00;;;5.40;;
7029;SDS011;3556;53.500;10.176;2023-05-14T07:45:37;5.60;;;5.20;;
7029;SDS011;3556;53.500;10.176;2023-05-14T07:48:03;6.10;;;5.40;;
7029;SDS011;3556;53.500;10.176;2023-05-14T07:50:29;6.10;;;5.60;;
7029;SDS011;3556;53.500;10.176;2023-05-14T07:52:55;11.33;;;5.77;;
7029;SDS011;3556;53.500;10.176;2023-05-14T07:55:21;5.93;;;5.43;;
7029;SDS011;3556;53.500;10.176;2023-05-14T07:57:46;6.13;;;5.60;;
7029;SDS011;3556;53.500;10.176;2023-05-14T08:00:12;5.87;;;5.47;;
7029;SDS011;3556;53.500;10.176;2023-05-14T08:02:38;11.73;;;5.90;;
7029;SDS011;3556;53.500;10.176;2023-05-14T08:05:04;6.60;;;5.30;;
7029;SDS011;3556;53.500;10.176;2023-05-14T08:07:30;6.47;;;5.40;;
7029;SDS011;3556;53.500;10.176;2023-05-14T08:09:57;11.80;;;5.57;;
7029;SDS011;3556;53.500;10.176;2023-05-14T08:12:23;5.93;;;5.33;;
7029;SDS011;3556;53.500;10.176;2023-05-14T08:14:49;6.10;;;5.60;;
7029;SDS011;3556;53.500;10.176;2023-05-14T08:17:15;5.30;;;4.90;;
7029;SDS011;3556;53.500;10.176;2023-05-14T08:19:41;5.83;;;5.33;;
7029;SDS011;3556;53.500;10.176;2023-05-14T08:22:07;6.80;;;5.30;;
7029;SDS011;3556;53.500;10.176;2023-05-14T08:24:32;6.00;;;4.87;;
7029;SDS011;3556;53.500;10.176;2023-05-14T08:26:58;6.07;;;4.87;;
7029;SDS011;3556;53.500;10.176;2023-05-14T08:29:24;7.63;;;4.80;;
7029;SDS011;3556;53.500;10.176;2023-05-14T08:31:50;5.27;;;4.10;;
7029;SDS011;3556;53.500;10.176;2023-05-14T08:34:15;6.60;;;4.13;;
7029;SDS011;3556;53.500;10.176;2023-05-14T08:36:41;5.10;;;4.27;;
7029;SDS011;3556;53.500;10.176;2023-05-14T08:39:07;6.00;;;4.20;;
7029;SDS011;3556;53.500;10.176;2023-05-14T08:41:32;5.60;;;4.00;;
7029;SDS011;3556;53.500;10.176;2023-05-14T08:44:06;4.87;;;4.37;;
7029;SDS011;3556;53.500;10.176;2023-05-14T08:46:36;4.40;;;4.00;;
7029;SDS011;3556;53.500;10.176;2023-05-14T08:49:51;6.50;;;4.40;;
7029;SDS011;3556;53.500;10.176;2023-05-14T08:51:54;6.20;;;4.10;;
7029;SDS011;3556;53.500;10.176;2023-05-14T08:54:20;6.43;;;4.23;;
7029;SDS011;3556;53.500;10.176;2023-05-14T08:56:48;5.10;;;4.37;;
7029;SDS011;3556;53.500;10.176;2023-05-14T08:59:15;9.00;;;3.90;;
7029;SDS011;3556;53.500;10.176;2023-05-14T09:01:43;6.03;;;4.20;;
7029;SDS011;3556;53.500;10.176;2023-05-14T09:04:11;6.83;;;3.93;;
7029;SDS011;3556;53.500;10.176;2023-05-14T09:06:39;6.93;;;4.17;;
7029;SDS011;3556;53.500;10.176;2023-05-14T09:09:07;4.20;;;3.90;;
7029;SDS011;3556;53.500;10.176;2023-05-14T09:11:39;4.73;;;4.00;;
7029;SDS011;3556;53.500;10.176;2023-05-14T09:14:14;8.60;;;4.40;;
7029;SDS011;3556;53.500;10.176;2023-05-14T09:16:40;4.70;;;4.30;;
7029;SDS011;3556;53.500;10.176;2023-05-14T09:19:10;4.47;;;4.10;;
7029;SDS011;3556;53.500;10.176;2023-05-14T09:21:36;7.10;;;4.30;;
7029;SDS011;3556;53.500;10.176;2023-05-14T09:24:02;4.47;;;4.07;;
7029;SDS011;3556;53.500;10.176;2023-05-14T09:26:30;4.97;;;3.80;;
7029;SDS011;3556;53.500;10.176;2023-05-14T09:28:57;7.10;;;4.13;;
7029;SDS011;3556;53.500;10.176;2023-05-14T09:31:26;9.27;;;4.57;;
7029;SDS011;3556;53.500;10.176;2023-05-14T09:33:56;8.13;;;4.40;;
7029;SDS011;3556;53.500;10.176;2023-05-14T09:36:22;11.03;;;4.40;;
7029;SDS011;3556;53.500;10.176;2023-05-14T09:38:51;5.20;;;4.80;;
7029;SDS011;3556;53.500;10.176;2023-05-14T09:41:17;6.37;;;4.60;;
7029;SDS011;3556;53.500;10.176;2023-05-14T09:43:44;5.73;;;3.97;;
7029;SDS011;3556;53.500;10.176;2023-05-14T09:46:10;5.10;;;4.70;;
7029;SDS011;3556;53.500;10.176;2023-05-14T09:48:35;5.50;;;4.67;;
7029;SDS011;3556;53.500;10.176;2023-05-14T09:51:01;4.40;;;4.10;;
7029;SDS011;3556;53.500;10.176;2023-05-14T09:53:27;4.53;;;3.97;;
7029;SDS011;3556;53.500;10.176;2023-05-14T09:55:53;6.53;;;4.00;;
7029;SDS011;3556;53.500;10.176;2023-05-14T09:58:19;7.80;;;3.80;;
7029;SDS011;3556;53.500;10.176;2023-05-14T10:00:45;7.83;;;4.17;;
7029;SDS011;3556;53.500;10.176;2023-05-14T10:03:12;4.13;;;3.83;;
7029;SDS011;3556;53.500;10.176;2023-05-14T10:05:39;4.43;;;4.00;;
7029;SDS011;3556;53.500;10.176;2023-05-14T10:08:19;4.67;;;4.27;;
7029;SDS011;3556;53.500;10.176;2023-05-14T10:10:49;4.20;;;3.90;;
7029;SDS011;3556;53.500;10.176;2023-05-14T10:13:17;4.30;;;4.00;;
7029;SDS011;3556;53.500;10.176;2023-05-14T10:15:47;4.03;;;3.57;;
7029;SDS011;3556;53.500;10.176;2023-05-14T10:18:16;4.40;;;4.00;;
7029;SDS011;3556;53.500;10.176;2023-05-14T10:20:47;4.83;;;4.40;;
7029;SDS011;3556;53.500;10.176;2023-05-14T10:23:17;4.00;;;3.60;;
7029;SDS011;3556;53.500;10.176;2023-05-14T10:25:43;5.50;;;3.73;;
7029;SDS011;3556;53.500;10.176;2023-05-14T10:28:09;4.90;;;4.23;;
7029;SDS011;3556;53.500;10.176;2023-05-14T10:30:38;8.73;;;3.70;;
7029;SDS011;3556;53.500;10.176;2023-05-14T10:33:11;6.20;;;4.30;;
7029;SDS011;3556;53.500;10.176;2023-05-14T10:35:54;4.20;;;3.70;;
7029;SDS011;3556;53.500;10.176;2023-05-14T10:38:22;4.40;;;4.10;;
7029;SDS011;3556;53.500;10.176;2023-05-14T10:40:53;4.30;;;3.90;;
7029;SDS011;3556;53.500;10.176;2023-05-14T10:43:20;10.10;;;4.77;;
7029;SDS011;3556;53.500;10.176;2023-05-14T10:45:49;6.60;;;4.30;;
7029;SDS011;3556;53.500;10.176;2023-05-14T10:48:15;6.83;;;4.50;;
7029;SDS011;3556;53.500;10.176;2023-05-14T10:50:41;6.07;;;4.57;;
7029;SDS011;3556;53.500;10.176;2023-05-14T10:53:09;5.60;;;4.40;;
7029;SDS011;3556;53.500;10.176;2023-05-14T10:55:37;8.60;;;4.40;;
7029;SDS011;3556;53.500;10.176;2023-05-14T10:58:03;5.13;;;4.63;;
7029;SDS011;3556;53.500;10.176;2023-05-14T11:00:32;4.80;;;4.40;;
7029;SDS011;3556;53.500;10.176;2023-05-14T11:02:58;9.13;;;4.37;;
7029;SDS011;3556;53.500;10.176;2023-05-14T11:05:24;4.20;;;3.90;;
7029;SDS011;3556;53.500;10.176;2023-05-14T11:07:51;6.77;;;4.17;;
7029;SDS011;3556;53.500;10.176;2023-05-14T11:10:21;7.00;;;3.93;;
7029;SDS011;3556;53.500;10.176;2023-05-14T11:12:49;4.77;;;4.47;;
7029;SDS011;3556;53.500;10.176;2023-05-14T11:15:16;5.83;;;4.40;;
7029;SDS011;3556;53.500;10.176;2023-05-14T11:17:44;4.10;;;3.90;;
7029;SDS011;3556;53.500;10.176;2023-05-14T11:20:11;4.73;;;4.40;;
7029;SDS011;3556;53.500;10.176;2023-05-14T11:22:37;7.60;;;4.00;;
7029;SDS011;3556;53.500;10.176;2023-05-14T11:25:05;5.20;;;4.30;;
7029;SDS011;3556;53.500;10.176;2023-05-14T11:27:34;6.67;;;4.67;;
7029;SDS011;3556;53.500;10.176;2023-05-14T11:30:00;13.03;;;4.90;;
7029;SDS011;3556;53.500;10.176;2023-05-14T11:32:26;5.30;;;4.10;;
7029;SDS011;3556;53.500;10.176;2023-05-14T11:34:52;8.20;;;4.17;;
7029;SDS011;3556;53.500;10.176;2023-05-14T11:37:18;5.50;;;4.03;;
7029;SDS011;3556;53.500;10.176;2023-05-14T11:39:48;4.33;;;4.03;;
7029;SDS011;3556;53.500;10.176;2023-05-14T11:42:16;4.33;;;3.93;;
7029;SDS011;3556;53.500;10.176;2023-05-14T11:44:44;4.40;;;4.10;;
7029;SDS011;3556;53.500;10.176;2023-05-14T11:47:15;6.93;;;4.27;;
7029;SDS011;3556;53.500;10.176;2023-05-14T11:49:41;6.10;;;4.20;;
7029;SDS011;3556;53.500;10.176;2023-05-14T11:52:07;4.57;;;4.17;;
7029;SDS011;3556;53.500;10.176;2023-05-14T11:54:35;5.80;;;3.73;;
7029;SDS011;3556;53.500;10.176;2023-05-14T11:57:11;7.43;;;4.00;;
7029;SDS011;3556;53.500;10.176;2023-05-14T11:59:40;4.40;;;4.00;;
7029;SDS011;3556;53.500;10.176;2023-05-14T12:02:09;9.03;;;4.20;;
7029;SDS011;3556;53.500;10.176;2023-05-14T12:04:36;6.30;;;4.47;;
7029;SDS011;3556;53.500;10.176;2023-05-14T12:07:07;5.20;;;4.33;;
7029;SDS011;3556;53.500;10.176;2023-05-14T12:09:35;8.43;;;4.30;;
7029;SDS011;3556;53.500;10.176;2023-05-14T12:12:12;6.13;;;3.80;;
7029;SDS011;3556;53.500;10.176;2023-05-14T12:14:38;5.03;;;4.23;;
7029;SDS011;3556;53.500;10.176;2023-05-14T12:17:18;5.20;;;4.33;;
7029;SDS011;3556;53.500;10.176;2023-05-14T12:19:46;4.80;;;4.33;;
7029;SDS011;3556;53.500;10.176;2023-05-14T12:22:14;5.13;;;4.50;;
7029;SDS011;3556;53.500;10.176;2023-05-14T12:24:42;5.50;;;4.70;;
7029;SDS011;3556;53.500;10.176;2023-05-14T12:27:08;7.53;;;4.40;;
7029;SDS011;3556;53.500;10.176;2023-05-14T12:29:35;4.80;;;4.40;;
7029;SDS011;3556;53.500;10.176;2023-05-14T12:32:10;5.17;;;4.60;;
7029;SDS011;3556;53.500;10.176;2023-05-14T12:34:36;5.50;;;3.90;;
7029;SDS011;3556;53.500;10.176;2023-05-14T12:37:02;5.67;;;4.60;;
7029;SDS011;3556;53.500;10.176;2023-05-14T12:39:29;8.33;;;4.33;;
7029;SDS011;3556;53.500;10.176;2023-05-14T12:41:56;4.47;;;4.17;;
7029;SDS011;3556;53.500;10.176;2023-05-14T12:44:22;4.47;;;4.03;;
7029;SDS011;3556;53.500;10.176;2023-05-14T12:46:47;4.87;;;4.47;;
7029;SDS011;3556;53.500;10.176;2023-05-14T12:49:13;5.83;;;4.60;;
7029;SDS011;3556;53.500;10.176;2023-05-14T12:51:39;4.83;;;4.43;;
7029;SDS011;3556;53.500;10.176;2023-05-14T12:54:04;4.37;;;3.97;;
7029;SDS011;3556;53.500;10.176;2023-05-14T12:56:30;4.80;;;4.30;;
7029;SDS011;3556;53.500;10.176;2023-05-14T12:58:56;4.80;;;4.30;;
7029;SDS011;3556;53.500;10.176;2023-05-14T13:01:22;5.20;;;4.33;;
7029;SDS011;3556;53.500;10.176;2023-05-14T13:03:48;5.07;;;4.40;;
7029;SDS011;3556;53.500;10.176;2023-05-14T13:06:14;9.30;;;3.93;;
7029;SDS011;3556;53.500;10.176;2023-05-14T13:08:40;4.37;;;3.97;;
7029;SDS011;3556;53.500;10.176;2023-05-14T13:11:05;5.00;;;4.33;;
7029;SDS011;3556;53.500;10.176;2023-05-14T13:13:32;6.27;;;4.87;;
7029;SDS011;3556;53.500;10.176;2023-05-14T13:15:57;6.33;;;4.40;;
7029;SDS011;3556;53.500;10.176;2023-05-14T13:18:23;4.83;;;4.47;;
7029;SDS011;3556;53.500;10.176;2023-05-14T13:20:50;5.77;;;4.70;;
7029;SDS011;3556;53.500;10.176;2023-05-14T13:23:16;5.70;;;4.77;;
7029;SDS011;3556;53.500;10.176;2023-05-14T13:25:41;6.03;;;4.50;;
7029;SDS011;3556;53.500;10.176;2023-05-14T13:28:07;7.70;;;4.90;;
7029;SDS011;3556;53.500;10.176;2023-05-14T13:30:33;5.37;;;4.90;;
7029;SDS011;3556;53.500;10.176;2023-05-14T13:32:58;11.43;;;5.20;;
7029;SDS011;3556;53.500;10.176;2023-05-14T13:35:24;5.20;;;4.83;;
7029;SDS011;3556;53.500;10.176;2023-05-14T13:37:50;5.20;;;4.57;;
7029;SDS011;3556;53.500;10.176;2023-05-14T13:40:15;5.00;;;4.60;;
7029;SDS011;3556;53.500;10.176;2023-05-14T13:42:41;4.60;;;4.20;;
7029;SDS011;3556;53.500;10.176;2023-05-14T13:45:07;5.70;;;4.10;;
7029;SDS011;3556;53.500;10.176;2023-05-14T13:47:33;7.30;;;4.30;;
7029;SDS011;3556;53.500;10.176;2023-05-14T13:49:58;4.83;;;4.50;;
7029;SDS011;3556;53.500;10.176;2023-05-14T13:52:24;4.93;;;4.53;;
7029;SDS011;3556;53.500;10.176;2023-05-14T13:54:50;6.90;;;4.40;;
7029;SDS011;3556;53.500;10.176;2023-05-14T13:57:17;10.50;;;4.67;;
7029;SDS011;3556;53.500;10.176;2023-05-14T13:59:43;5.20;;;4.50;;
7029;SDS011;3556;53.500;10.176;2023-05-14T14:02:10;13.40;;;4.90;;
7029;SDS011;3556;53.500;10.176;2023-05-14T14:04:36;4.40;;;4.00;;
7029;SDS011;3556;53.500;10.176;2023-05-14T14:07:02;5.40;;;4.10;;
7029;SDS011;3556;53.500;10.176;2023-05-14T14:09:27;6.13;;;4.27;;
7029;SDS011;3556;53.500;10.176;2023-05-14T14:11:57;5.23;;;4.27;;
7029;SDS011;3556;53.500;10.176;2023-05-14T14:14:23;13.17;;;4.63;;
7029;SDS011;3556;53.500;10.176;2023-05-14T14:16:48;6.07;;;4.10;;
7029;SDS011;3556;53.500;10.176;2023-05-14T14:19:14;4.43;;;4.03;;
7029;SDS011;3556;53.500;10.176;2023-05-14T14:21:40;5.73;;;4.23;;
7029;SDS011;3556;53.500;10.176;2023-05-14T14:24:06;8.30;;;4.27;;
7029;SDS011;3556;53.500;10.176;2023-05-14T14:26:32;5.10;;;3.93;;
7029;SDS011;3556;53.500;10.176;2023-05-14T14:28:58;6.00;;;3.93;;
7029;SDS011;3556;53.500;10.176;2023-05-14T14:31:23;4.50;;;4.10;;
7029;SDS011;3556;53.500;10.176;2023-05-14T14:33:49;8.97;;;4.43;;
7029;SDS011;3556;53.500;10.176;2023-05-14T14:36:14;5.03;;;4.53;;
7029;SDS011;3556;53.500;10.176;2023-05-14T14:38:40;5.00;;;3.70;;
7029;SDS011;3556;53.500;10.176;2023-05-14T14:41:06;7.20;;;4.53;;
7029;SDS011;3556;53.500;10.176;2023-05-14T14:43:36;5.10;;;4.30;;
7029;SDS011;3556;53.500;10.176;2023-05-14T14:46:04;6.90;;;3.93;;
7029;SDS011;3556;53.500;10.176;2023-05-14T14:48:30;4.77;;;4.40;;
7029;SDS011;3556;53.500;10.176;2023-05-14T14:51:04;7.63;;;4.10;;
7029;SDS011;3556;53.500;10.176;2023-05-14T14:53:31;4.87;;;4.10;;
7029;SDS011;3556;53.500;10.176;2023-05-14T14:55:58;7.60;;;5.60;;
7029;SDS011;3556;53.500;10.176;2023-05-14T14:58:27;6.53;;;4.60;;
7029;SDS011;3556;53.500;10.176;2023-05-14T15:00:53;5.30;;;4.23;;